sensor_id;sensor_type;location;lat;lon;timestamp;pressure;altitude;pressure_sealevel;temperature;humidity
55486;BME280;49383;-25.924;28.194;2023-02-12T00:02:18;84851.89;;;19.43;55.79
55486;BME280;49383;-25.924;28.194;2023-02-12T00:04:44;84852.12;;;19.79;51.23
55486;BME280;49383;-25.924;28.194;2023-02-12T00:07:09;84845.41;;;19.70;50.92
55486;BME280;49383;-25.924;28.194;2023-02-12T00:09:34;84846.33;;;20.25;52.43
55486;BME280;49383;-25.924;28.194;2023-02-12T00:11:59;84847.47;;;19.95;54.85
55486;BME280;49383;-25.924;28.194;2023-02-12T00:14:24;84840.43;;;20.17;50.75
55486;BME280;49383;-25.924;28.194;2023-02-12T00:16:49;84839.37;;;20.17;50.61
55486;BME280;49383;-25.924;28.194;2023-02-12T00:19:14;84838.33;;;19.99;52.78
55486;BME280;49383;-25.924;28.194;2023-02-12T00:21:39;84840.89;;;19.99;54.62
55486;BME280;49383;-25.924;28.194;2023-02-12T00:24:04;84837.00;;;20.01;49.48
55486;BME280;49383;-25.924;28.194;2023-02-12T00:26:30;84837.15;;;20.33;50.99
55486;BME280;49383;-25.924;28.194;2023-02-12T00:28:55;84842.92;;;19.77;53.17
55486;BME280;49383;-25.924;28.194;2023-02-12T00:31:22;84842.76;;;19.69;54.70
55486;BME280;49383;-25.924;28.194;2023-02-12T00:33:45;84842.42;;;19.93;50.62
55486;BME280;49383;-25.924;28.194;2023-02-12T00:36:13;84837.65;;;20.11;50.55
55486;BME280;49383;-25.924;28.194;2023-02-12T00:38:35;84837.44;;;19.92;52.58
55486;BME280;49383;-25.924;28.194;2023-02-12T00:41:00;84835.53;;;19.82;54.68
55486;BME280;49383;-25.924;28.194;2023-02-12T00:43:25;84833.25;;;19.73;52.78
55486;BME280;49383;-25.924;28.194;2023-02-12T00:45:50;84830.12;;;19.99;49.92
55486;BME280;49383;-25.924;28.194;2023-02-12T00:48:15;84836.91;;;20.17;52.22
55486;BME280;49383;-25.924;28.194;2023-02-12T00:50:40;84845.76;;;19.66;54.20
55486;BME280;49383;-25.924;28.194;2023-02-12T00:53:05;84845.75;;;20.09;54.37
55486;BME280;49383;-25.924;28.194;2023-02-12T00:55:31;84841.06;;;20.00;49.42
55486;BME280;49383;-25.924;28.194;2023-02-12T00:57:55;84845.37;;;20.45;51.26
55486;BME280;49383;-25.924;28.194;2023-02-12T01:00:20;84850.88;;;19.76;53.66
55486;BME280;49383;-25.924;28.194;2023-02-12T01:02:45;84849.12;;;19.58;55.01
55486;BME280;49383;-25.924;28.194;2023-02-12T01:05:10;84849.16;;;19.72;50.92
55486;BME280;49383;-25.924;28.194;2023-02-12T01:07:36;84847.97;;;20.15;50.20
55486;BME280;49383;-25.924;28.194;2023-02-12T01:10:01;84851.88;;;20.19;52.43
55486;BME280;49383;-25.924;28.194;2023-02-12T01:12:26;84850.53;;;19.79;53.89
55486;BME280;49383;-25.924;28.194;2023-02-12T01:14:51;84847.60;;;19.82;54.02
55486;BME280;49383;-25.924;28.194;2023-02-12T01:17:16;84841.47;;;20.27;48.97
55486;BME280;49383;-25.924;28.194;2023-02-12T01:19:41;84842.76;;;20.19;51.94
55486;BME280;49383;-25.924;28.194;2023-02-12T01:22:06;84843.52;;;20.31;53.39
55486;BME280;49383;-25.924;28.194;2023-02-12T01:24:31;84843.59;;;19.74;55.26
55486;BME280;49383;-25.924;28.194;2023-02-12T01:26:56;84837.87;;;20.17;50.44
55486;BME280;49383;-25.924;28.194;2023-02-12T01:29:21;84836.79;;;20.32;50.53
55486;BME280;49383;-25.924;28.194;2023-02-12T01:31:46;84835.24;;;19.84;53.31
55486;BME280;49383;-25.924;28.194;2023-02-12T01:34:11;84831.97;;;19.52;54.64
55486;BME280;49383;-25.924;28.194;2023-02-12T01:36:36;84823.99;;;19.86;52.70
55486;BME280;49383;-25.924;28.194;2023-02-12T01:39:04;84814.83;;;20.24;49.08
55486;BME280;49383;-25.924;28.194;2023-02-12T01:41:29;84808.92;;;20.32;51.46
55486;BME280;49383;-25.924;28.194;2023-02-12T01:46:18;84814.40;;;19.74;52.09
55486;BME280;49383;-25.924;28.194;2023-02-12T01:48:45;84813.67;;;20.00;49.87
55486;BME280;49383;-25.924;28.194;2023-02-12T01:51:10;84816.43;;;20.16;52.12
55486;BME280;49383;-25.924;28.194;2023-02-12T01:53:38;84817.99;;;20.17;53.76
55486;BME280;49383;-25.924;28.194;2023-02-12T01:56:01;84824.99;;;19.98;55.30
55486;BME280;49383;-25.924;28.194;2023-02-12T01:58:24;84819.68;;;19.63;50.62
55486;BME280;49383;-25.924;28.194;2023-02-12T02:00:49;84817.88;;;19.96;50.41
55486;BME280;49383;-25.924;28.194;2023-02-12T02:03:14;84817.07;;;20.12;52.63
55486;BME280;49383;-25.924;28.194;2023-02-12T02:05:44;84819.52;;;19.60;54.29
55486;BME280;49383;-25.924;28.194;2023-02-12T02:08:05;84813.82;;;19.73;50.97
55486;BME280;49383;-25.924;28.194;2023-02-12T02:10:30;84815.76;;;20.32;49.95
55486;BME280;49383;-25.924;28.194;2023-02-12T02:12:56;84814.41;;;20.22;52.34
55486;BME280;49383;-25.924;28.194;2023-02-12T02:15:21;84822.15;;;19.96;54.51
55486;BME280;49383;-25.924;28.194;2023-02-12T02:17:50;84818.69;;;19.68;54.92
55486;BME280;49383;-25.924;28.194;2023-02-12T02:22:39;84820.11;;;20.45;50.87
55486;BME280;49383;-25.924;28.194;2023-02-12T02:25:16;84819.18;;;20.33;52.78
55486;BME280;49383;-25.924;28.194;2023-02-12T02:27:35;84822.05;;;20.00;54.19
55486;BME280;49383;-25.924;28.194;2023-02-12T02:32:21;84825.08;;;19.85;49.59
55486;BME280;49383;-25.924;28.194;2023-02-12T02:34:49;84824.86;;;20.37;50.21
55486;BME280;49383;-25.924;28.194;2023-02-12T02:37:14;84819.29;;;19.79;52.76
55486;BME280;49383;-25.924;28.194;2023-02-12T02:39:38;84817.55;;;19.87;54.23
55486;BME280;49383;-25.924;28.194;2023-02-12T02:42:00;84817.66;;;19.63;55.03
55486;BME280;49383;-25.924;28.194;2023-02-12T02:44:27;84820.33;;;19.66;52.85
55486;BME280;49383;-25.924;28.194;2023-02-12T02:46:50;84816.20;;;20.11;49.60
55486;BME280;49383;-25.924;28.194;2023-02-12T02:49:16;84812.96;;;20.20;52.17
55486;BME280;49383;-25.924;28.194;2023-02-12T02:51:41;84811.56;;;19.99;54.04
55486;BME280;49383;-25.924;28.194;2023-02-12T02:54:06;84812.59;;;20.02;54.77
55486;BME280;49383;-25.924;28.194;2023-02-12T02:56:29;84813.66;;;19.90;55.33
55486;BME280;49383;-25.924;28.194;2023-02-12T02:58:58;84814.70;;;20.12;53.13
55486;BME280;49383;-25.924;28.194;2023-02-12T03:01:23;84817.49;;;20.32;49.69
55486;BME280;49383;-25.924;28.194;2023-02-12T03:03:49;84817.27;;;20.15;52.31
55486;BME280;49383;-25.924;28.194;2023-02-12T03:06:12;84817.46;;;19.94;54.56
55486;BME280;49383;-25.924;28.194;2023-02-12T03:08:37;84810.78;;;19.90;55.46
55486;BME280;49383;-25.924;28.194;2023-02-12T03:11:02;84805.99;;;20.04;55.98
55486;BME280;49383;-25.924;28.194;2023-02-12T03:13:27;84803.63;;;20.25;52.97
55486;BME280;49383;-25.924;28.194;2023-02-12T03:15:53;84807.48;;;20.21;50.47
55486;BME280;49383;-25.924;28.194;2023-02-12T03:18:18;84807.26;;;20.23;52.70
55486;BME280;49383;-25.924;28.194;2023-02-12T03:20:44;84806.07;;;19.87;54.71
55486;BME280;49383;-25.924;28.194;2023-02-12T03:23:08;84807.85;;;20.17;55.44
55486;BME280;49383;-25.924;28.194;2023-02-12T03:25:35;84810.90;;;19.87;56.15
55486;BME280;49383;-25.924;28.194;2023-02-12T03:28:00;84813.04;;;20.12;51.07
55486;BME280;49383;-25.924;28.194;2023-02-12T03:30:21;84814.49;;;20.20;51.65
55486;BME280;49383;-25.924;28.194;2023-02-12T03:32:53;84813.61;;;19.95;53.73
55486;BME280;49383;-25.924;28.194;2023-02-12T03:35:15;84819.31;;;20.26;54.99
55486;BME280;49383;-25.924;28.194;2023-02-12T03:37:40;84819.87;;;19.81;55.90
55486;BME280;49383;-25.924;28.194;2023-02-12T03:40:07;84819.92;;;20.02;54.09
55486;BME280;49383;-25.924;28.194;2023-02-12T03:42:33;84821.06;;;20.09;49.96
55486;BME280;49383;-25.924;28.194;2023-02-12T03:44:55;84826.01;;;20.08;52.24
55486;BME280;49383;-25.924;28.194;2023-02-12T03:47:22;84829.41;;;19.91;54.07
55486;BME280;49383;-25.924;28.194;2023-02-12T03:49:47;84831.25;;;20.05;55.29
55486;BME280;49383;-25.924;28.194;2023-02-12T03:52:06;84831.62;;;19.79;56.06
55486;BME280;49383;-25.924;28.194;2023-02-12T03:54:31;84835.47;;;20.00;52.88
55486;BME280;49383;-25.924;28.194;2023-02-12T03:57:00;84840.73;;;20.21;51.41
55486;BME280;49383;-25.924;28.194;2023-02-12T03:59:23;84843.28;;;19.98;53.49
55486;BME280;49383;-25.924;28.194;2023-02-12T04:01:47;84848.65;;;20.14;55.33
55486;BME280;49383;-25.924;28.194;2023-02-12T04:04:12;84849.37;;;19.65;56.06
55486;BME280;49383;-25.924;28.194;2023-02-12T04:06:37;84851.68;;;19.89;55.72
55486;BME280;49383;-25.924;28.194;2023-02-12T04:09:03;84853.15;;;20.36;50.36
55486;BME280;49383;-25.924;28.194;2023-02-12T04:11:35;84857.31;;;20.13;52.55
55486;BME280;49383;-25.924;28.194;2023-02-12T04:14:02;84862.54;;;19.93;54.10
55486;BME280;49383;-25.924;28.194;2023-02-12T04:16:24;84863.64;;;19.95;55.64
55486;BME280;49383;-25.924;28.194;2023-02-12T04:18:44;84868.48;;;19.78;56.31
55486;BME280;49383;-25.924;28.194;2023-02-12T04:21:13;84872.52;;;19.80;51.91
55486;BME280;49383;-25.924;28.194;2023-02-12T04:23:44;84871.84;;;20.21;51.60
55486;BME280;49383;-25.924;28.194;2023-02-12T04:26:04;84877.32;;;20.19;54.52
55486;BME280;49383;-25.924;28.194;2023-02-12T04:28:30;84881.72;;;20.04;55.84
55486;BME280;49383;-25.924;28.194;2023-02-12T04:30:55;84887.43;;;19.94;50.87
55486;BME280;49383;-25.924;28.194;2023-02-12T04:33:18;84894.03;;;20.22;51.46
55486;BME280;49383;-25.924;28.194;2023-02-12T04:35:45;84900.69;;;20.20;53.44
55486;BME280;49383;-25.924;28.194;2023-02-12T04:38:09;84907.67;;;19.97;55.01
55486;BME280;49383;-25.924;28.194;2023-02-12T04:40:30;84911.38;;;19.65;56.06
55486;BME280;49383;-25.924;28.194;2023-02-12T04:42:55;84915.00;;;19.80;50.49
55486;BME280;49383;-25.924;28.194;2023-02-12T04:45:23;84915.59;;;19.99;51.67
55486;BME280;49383;-25.924;28.194;2023-02-12T04:47:45;84923.22;;;19.90;53.38
55486;BME280;49383;-25.924;28.194;2023-02-12T04:50:11;84925.00;;;19.86;55.13
55486;BME280;49383;-25.924;28.194;2023-02-12T04:52:35;84930.31;;;19.79;55.62
55486;BME280;49383;-25.924;28.194;2023-02-12T04:55:00;84930.51;;;19.74;52.70
55486;BME280;49383;-25.924;28.194;2023-02-12T04:57:26;84928.74;;;20.07;50.55
55486;BME280;49383;-25.924;28.194;2023-02-12T04:59:51;84928.25;;;20.01;53.22
55486;BME280;49383;-25.924;28.194;2023-02-12T05:02:16;84925.83;;;19.80;54.92
55486;BME280;49383;-25.924;28.194;2023-02-12T05:04:41;84928.34;;;19.66;55.52
55486;BME280;49383;-25.924;28.194;2023-02-12T05:07:06;84927.14;;;20.37;53.75
55486;BME280;49383;-25.924;28.194;2023-02-12T05:09:31;84927.16;;;20.01;50.40
55486;BME280;49383;-25.924;28.194;2023-02-12T05:11:57;84927.94;;;20.00;52.82
55486;BME280;49383;-25.924;28.194;2023-02-12T05:14:24;84932.25;;;19.85;54.60
55486;BME280;49383;-25.924;28.194;2023-02-12T05:16:47;84937.59;;;19.70;55.41
55486;BME280;49383;-25.924;28.194;2023-02-12T05:19:12;84942.56;;;19.79;51.31
55486;BME280;49383;-25.924;28.194;2023-02-12T05:21:37;84944.51;;;20.25;48.87
55486;BME280;49383;-25.924;28.194;2023-02-12T05:24:03;84944.04;;;20.15;51.89
55486;BME280;49383;-25.924;28.194;2023-02-12T05:26:28;84944.64;;;19.70;53.85
55486;BME280;49383;-25.924;28.194;2023-02-12T05:28:53;84945.17;;;19.98;54.78
55486;BME280;49383;-25.924;28.194;2023-02-12T05:31:19;84950.10;;;19.85;52.95
55486;BME280;49383;-25.924;28.194;2023-02-12T05:33:44;84952.01;;;19.86;49.44
55486;BME280;49383;-25.924;28.194;2023-02-12T05:36:12;84953.78;;;20.03;51.01
55486;BME280;49383;-25.924;28.194;2023-02-12T05:38:34;84950.18;;;20.01;53.73
55486;BME280;49383;-25.924;28.194;2023-02-12T05:41:02;84948.56;;;19.96;54.80
55486;BME280;49383;-25.924;28.194;2023-02-12T05:43:24;84944.31;;;19.97;53.42
55486;BME280;49383;-25.924;28.194;2023-02-12T05:45:50;84943.49;;;19.78;49.90
55486;BME280;49383;-25.924;28.194;2023-02-12T05:48:15;84943.82;;;19.97;50.50
55486;BME280;49383;-25.924;28.194;2023-02-12T05:50:40;84944.26;;;19.96;52.48
55486;BME280;49383;-25.924;28.194;2023-02-12T05:53:05;84944.22;;;19.90;54.27
55486;BME280;49383;-25.924;28.194;2023-02-12T05:55:31;84942.92;;;19.74;55.05
55486;BME280;49383;-25.924;28.194;2023-02-12T05:57:56;84943.71;;;19.85;51.91
55486;BME280;49383;-25.924;28.194;2023-02-12T06:00:21;84945.38;;;20.19;48.90
55486;BME280;49383;-25.924;28.194;2023-02-12T06:02:47;84944.82;;;20.01;48.94
55486;BME280;49383;-25.924;28.194;2023-02-12T06:05:12;84944.78;;;20.05;47.93
55486;BME280;49383;-25.924;28.194;2023-02-12T06:07:37;84946.61;;;19.95;47.61
55486;BME280;49383;-25.924;28.194;2023-02-12T06:10:03;84945.25;;;19.91;47.19
55486;BME280;49383;-25.924;28.194;2023-02-12T06:12:27;84945.57;;;19.96;46.66
55486;BME280;49383;-25.924;28.194;2023-02-12T06:14:52;84939.61;;;20.10;46.41
55486;BME280;49383;-25.924;28.194;2023-02-12T06:17:18;84937.66;;;20.30;45.95
55486;BME280;49383;-25.924;28.194;2023-02-12T06:19:43;84935.53;;;19.85;46.03
55486;BME280;49383;-25.924;28.194;2023-02-12T06:22:08;84936.37;;;20.24;45.41
55486;BME280;49383;-25.924;28.194;2023-02-12T06:24:33;84938.91;;;20.06;45.24
55486;BME280;49383;-25.924;28.194;2023-02-12T06:26:59;84937.66;;;20.22;45.24
55486;BME280;49383;-25.924;28.194;2023-02-12T06:29:24;84937.23;;;20.15;47.44
55486;BME280;49383;-25.924;28.194;2023-02-12T06:31:50;84936.26;;;20.09;50.18
55486;BME280;49383;-25.924;28.194;2023-02-12T06:34:15;84935.54;;;19.78;51.48
55486;BME280;49383;-25.924;28.194;2023-02-12T06:36:41;84939.30;;;20.09;52.11
55486;BME280;49383;-25.924;28.194;2023-02-12T06:39:05;84941.79;;;20.31;48.22
55486;BME280;49383;-25.924;28.194;2023-02-12T06:41:30;84944.89;;;20.08;46.93
55486;BME280;49383;-25.924;28.194;2023-02-12T06:43:56;84944.71;;;20.31;46.48
55486;BME280;49383;-25.924;28.194;2023-02-12T06:46:21;84942.77;;;20.50;45.77
55486;BME280;49383;-25.924;28.194;2023-02-12T06:48:47;84940.32;;;20.33;45.76
55486;BME280;49383;-25.924;28.194;2023-02-12T06:51:14;84939.36;;;20.11;45.98
55486;BME280;49383;-25.924;28.194;2023-02-12T06:53:37;84940.94;;;19.97;45.96
55486;BME280;49383;-25.924;28.194;2023-02-12T06:56:03;84943.68;;;20.03;45.49
55486;BME280;49383;-25.924;28.194;2023-02-12T06:58:27;84945.42;;;19.95;45.09
55486;BME280;49383;-25.924;28.194;2023-02-12T07:00:52;84949.05;;;20.22;44.94
55486;BME280;49383;-25.924;28.194;2023-02-12T07:03:17;84951.57;;;20.10;45.90
55486;BME280;49383;-25.924;28.194;2023-02-12T07:05:42;84951.97;;;19.74;49.11
55486;BME280;49383;-25.924;28.194;2023-02-12T07:08:07;84954.37;;;19.56;50.82
55486;BME280;49383;-25.924;28.194;2023-02-12T07:10:32;84956.90;;;19.97;51.33
55486;BME280;49383;-25.924;28.194;2023-02-12T07:12:58;84959.28;;;20.05;52.00
55486;BME280;49383;-25.924;28.194;2023-02-12T07:15:23;84966.03;;;19.82;52.57
55486;BME280;49383;-25.924;28.194;2023-02-12T07:17:48;84967.32;;;20.25;48.69
55486;BME280;49383;-25.924;28.194;2023-02-12T07:20:14;84969.52;;;19.79;47.80
55486;BME280;49383;-25.924;28.194;2023-02-12T07:22:39;84970.49;;;20.26;47.18
55486;BME280;49383;-25.924;28.194;2023-02-12T07:25:05;84971.21;;;20.25;46.79
55486;BME280;49383;-25.924;28.194;2023-02-12T07:27:29;84974.65;;;19.80;46.39
55486;BME280;49383;-25.924;28.194;2023-02-12T07:29:54;84977.56;;;20.33;45.92
55486;BME280;49383;-25.924;28.194;2023-02-12T07:32:20;84977.00;;;20.24;45.60
55486;BME280;49383;-25.924;28.194;2023-02-12T07:34:45;84974.46;;;20.34;45.84
55486;BME280;49383;-25.924;28.194;2023-02-12T07:37:10;84971.24;;;20.07;48.52
55486;BME280;49383;-25.924;28.194;2023-02-12T07:39:35;84970.43;;;19.88;50.54
55486;BME280;49383;-25.924;28.194;2023-02-12T07:42:00;84971.27;;;20.11;52.03
55486;BME280;49383;-25.924;28.194;2023-02-12T07:44:25;84971.37;;;20.02;52.60
55486;BME280;49383;-25.924;28.194;2023-02-12T07:46:50;84970.50;;;19.84;49.16
55486;BME280;49383;-25.924;28.194;2023-02-12T07:49:18;84972.79;;;20.16;46.37
55486;BME280;49383;-25.924;28.194;2023-02-12T07:51:41;84974.95;;;20.44;48.39
55486;BME280;49383;-25.924;28.194;2023-02-12T07:54:06;84972.38;;;20.22;50.42
55486;BME280;49383;-25.924;28.194;2023-02-12T07:56:33;84972.66;;;20.23;52.15
55486;BME280;49383;-25.924;28.194;2023-02-12T07:58:57;84970.02;;;20.11;48.51
55486;BME280;49383;-25.924;28.194;2023-02-12T08:01:22;84973.51;;;20.76;47.31
55486;BME280;49383;-25.924;28.194;2023-02-12T08:03:48;84976.43;;;20.58;50.39
55486;BME280;49383;-25.924;28.194;2023-02-12T08:06:14;84975.58;;;20.24;50.93
55486;BME280;49383;-25.924;28.194;2023-02-12T08:08:37;84974.67;;;20.21;52.74
55486;BME280;49383;-25.924;28.194;2023-02-12T08:11:03;84971.65;;;20.22;49.35
55486;BME280;49383;-25.924;28.194;2023-02-12T08:13:28;84973.03;;;20.12;46.93
55486;BME280;49383;-25.924;28.194;2023-02-12T08:15:59;84978.99;;;20.28;48.33
55486;BME280;49383;-25.924;28.194;2023-02-12T08:18:18;84983.56;;;20.22;50.77
55486;BME280;49383;-25.924;28.194;2023-02-12T08:20:43;84983.48;;;20.23;51.88
55486;BME280;49383;-25.924;28.194;2023-02-12T08:23:08;84986.08;;;20.22;52.80
55486;BME280;49383;-25.924;28.194;2023-02-12T08:25:33;84984.72;;;20.68;48.61
55486;BME280;49383;-25.924;28.194;2023-02-12T08:27:58;84989.10;;;20.30;47.70
55486;BME280;49383;-25.924;28.194;2023-02-12T08:30:23;84989.04;;;20.34;50.53
55486;BME280;49383;-25.924;28.194;2023-02-12T08:32:49;84987.01;;;20.12;52.26
55486;BME280;49383;-25.924;28.194;2023-02-12T08:35:15;84989.04;;;20.46;53.26
55486;BME280;49383;-25.924;28.194;2023-02-12T08:37:40;84986.92;;;20.22;49.87
55486;BME280;49383;-25.924;28.194;2023-02-12T08:40:06;84988.36;;;20.69;47.41
55486;BME280;49383;-25.924;28.194;2023-02-12T08:42:30;84989.36;;;20.73;49.72
55486;BME280;49383;-25.924;28.194;2023-02-12T08:44:55;84985.26;;;19.98;51.58
55486;BME280;49383;-25.924;28.194;2023-02-12T08:47:20;84988.95;;;20.54;51.85
55486;BME280;49383;-25.924;28.194;2023-02-12T08:49:45;84985.98;;;20.38;50.46
55486;BME280;49383;-25.924;28.194;2023-02-12T08:52:10;84981.57;;;20.35;47.67
55486;BME280;49383;-25.924;28.194;2023-02-12T08:54:35;84976.58;;;20.39;48.79
55486;BME280;49383;-25.924;28.194;2023-02-12T08:57:01;84973.60;;;20.31;50.54
55486;BME280;49383;-25.924;28.194;2023-02-12T08:59:26;84972.32;;;20.90;51.49
55486;BME280;49383;-25.924;28.194;2023-02-12T09:01:51;84968.11;;;20.61;47.59
55486;BME280;49383;-25.924;28.194;2023-02-12T09:04:17;84962.88;;;20.87;45.71
55486;BME280;49383;-25.924;28.194;2023-02-12T09:06:40;84963.63;;;20.76;45.70
55486;BME280;49383;-25.924;28.194;2023-02-12T09:09:06;84960.51;;;20.80;45.24
55486;BME280;49383;-25.924;28.194;2023-02-12T09:11:32;84959.26;;;20.80;44.85
55486;BME280;49383;-25.924;28.194;2023-02-12T09:13:57;84957.82;;;20.82;44.69
55486;BME280;49383;-25.924;28.194;2023-02-12T09:16:21;84959.21;;;20.97;44.66
55486;BME280;49383;-25.924;28.194;2023-02-12T09:18:47;84956.67;;;21.06;44.13
55486;BME280;49383;-25.924;28.194;2023-02-12T09:21:14;84953.99;;;21.14;44.36
55486;BME280;49383;-25.924;28.194;2023-02-12T09:23:38;84953.73;;;20.91;45.19
55486;BME280;49383;-25.924;28.194;2023-02-12T09:26:04;84950.88;;;20.93;44.92
55486;BME280;49383;-25.924;28.194;2023-02-12T09:33:19;84942.08;;;20.94;44.50
55486;BME280;49383;-25.924;28.194;2023-02-12T09:35:45;84942.62;;;20.79;44.72
55486;BME280;49383;-25.924;28.194;2023-02-12T09:38:11;84943.21;;;20.74;44.84
55486;BME280;49383;-25.924;28.194;2023-02-12T09:40:42;84938.42;;;20.62;44.72
55486;BME280;49383;-25.924;28.194;2023-02-12T09:43:06;84932.84;;;20.79;44.68
55486;BME280;49383;-25.924;28.194;2023-02-12T09:45:28;84934.23;;;20.82;44.94
55486;BME280;49383;-25.924;28.194;2023-02-12T09:47:56;84932.69;;;20.86;44.75
55486;BME280;49383;-25.924;28.194;2023-02-12T09:52:42;84935.99;;;20.80;44.70
55486;BME280;49383;-25.924;28.194;2023-02-12T09:55:12;84935.03;;;20.58;44.69
55486;BME280;49383;-25.924;28.194;2023-02-12T09:57:35;84933.43;;;20.70;44.57
55486;BME280;49383;-25.924;28.194;2023-02-12T10:00:00;84935.65;;;20.76;44.34
55486;BME280;49383;-25.924;28.194;2023-02-12T10:02:24;84935.80;;;20.74;44.02
55486;BME280;49383;-25.924;28.194;2023-02-12T10:04:49;84936.31;;;20.62;44.23
55486;BME280;49383;-25.924;28.194;2023-02-12T10:07:20;84930.93;;;20.91;43.73
55486;BME280;49383;-25.924;28.194;2023-02-12T10:12:11;84929.98;;;20.97;43.89
55486;BME280;49383;-25.924;28.194;2023-02-12T10:17:00;84923.43;;;20.78;43.92
55486;BME280;49383;-25.924;28.194;2023-02-12T10:19:31;84920.59;;;21.23;43.97
55486;BME280;49383;-25.924;28.194;2023-02-12T10:21:52;84920.79;;;21.15;44.01
55486;BME280;49383;-25.924;28.194;2023-02-12T10:24:19;84925.08;;;20.73;44.40
55486;BME280;49383;-25.924;28.194;2023-02-12T10:26:38;84925.93;;;20.71;44.51
55486;BME280;49383;-25.924;28.194;2023-02-12T10:29:10;84921.86;;;20.91;44.30
55486;BME280;49383;-25.924;28.194;2023-02-12T10:31:30;84918.08;;;20.95;44.71
55486;BME280;49383;-25.924;28.194;2023-02-12T10:33:52;84917.95;;;21.08;44.57
55486;BME280;49383;-25.924;28.194;2023-02-12T10:36:26;84914.72;;;21.30;44.54
55486;BME280;49383;-25.924;28.194;2023-02-12T10:38:46;84910.43;;;20.90;44.50
55486;BME280;49383;-25.924;28.194;2023-02-12T10:41:08;84909.03;;;21.05;44.66
55486;BME280;49383;-25.924;28.194;2023-02-12T10:43:32;84907.03;;;20.63;45.00
55486;BME280;49383;-25.924;28.194;2023-02-12T10:45:58;84908.74;;;20.86;44.97
55486;BME280;49383;-25.924;28.194;2023-02-12T10:48:26;84903.12;;;20.96;44.89
55486;BME280;49383;-25.924;28.194;2023-02-12T10:50:59;84898.35;;;20.83;44.67
55486;BME280;49383;-25.924;28.194;2023-02-12T10:53:20;84898.27;;;21.34;44.43
55486;BME280;49383;-25.924;28.194;2023-02-12T10:55:39;84891.14;;;20.90;44.31
55486;BME280;49383;-25.924;28.194;2023-02-12T10:58:05;84886.93;;;21.10;43.89
55486;BME280;49383;-25.924;28.194;2023-02-12T11:00:32;84884.05;;;21.01;44.03
55486;BME280;49383;-25.924;28.194;2023-02-12T11:02:59;84886.32;;;20.78;44.42
55486;BME280;49383;-25.924;28.194;2023-02-12T11:05:24;84883.03;;;20.99;44.24
55486;BME280;49383;-25.924;28.194;2023-02-12T11:07:48;84875.87;;;20.95;44.32
55486;BME280;49383;-25.924;28.194;2023-02-12T11:10:20;84872.36;;;21.33;44.42
55486;BME280;49383;-25.924;28.194;2023-02-12T11:12:39;84865.59;;;20.99;44.63
55486;BME280;49383;-25.924;28.194;2023-02-12T11:15:03;84864.69;;;20.95;44.24
55486;BME280;49383;-25.924;28.194;2023-02-12T11:17:29;84865.11;;;20.86;44.37
55486;BME280;49383;-25.924;28.194;2023-02-12T11:22:17;84859.37;;;21.05;44.56
55486;BME280;49383;-25.924;28.194;2023-02-12T11:24:41;84855.19;;;20.64;44.77
55486;BME280;49383;-25.924;28.194;2023-02-12T11:27:11;84852.92;;;20.64;44.71
55486;BME280;49383;-25.924;28.194;2023-02-12T11:29:31;84851.54;;;20.93;44.52
55486;BME280;49383;-25.924;28.194;2023-02-12T11:32:02;84852.36;;;20.93;44.59
55486;BME280;49383;-25.924;28.194;2023-02-12T11:34:21;84849.86;;;20.95;44.62
55486;BME280;49383;-25.924;28.194;2023-02-12T11:36:48;84845.62;;;20.80;44.65
55486;BME280;49383;-25.924;28.194;2023-02-12T11:39:18;84843.59;;;21.24;44.52
55486;BME280;49383;-25.924;28.194;2023-02-12T11:41:39;84842.31;;;20.77;44.81
55486;BME280;49383;-25.924;28.194;2023-02-12T11:44:08;84835.73;;;20.78;44.70
55486;BME280;49383;-25.924;28.194;2023-02-12T11:46:29;84838.81;;;20.64;44.53
55486;BME280;49383;-25.924;28.194;2023-02-12T11:48:56;84839.73;;;20.93;44.34
55486;BME280;49383;-25.924;28.194;2023-02-12T11:51:23;84837.71;;;20.55;44.20
55486;BME280;49383;-25.924;28.194;2023-02-12T11:53:49;84835.46;;;20.98;44.03
55486;BME280;49383;-25.924;28.194;2023-02-12T11:56:12;84832.63;;;20.88;44.58
55486;BME280;49383;-25.924;28.194;2023-02-12T11:58:36;84832.67;;;20.71;44.54
55486;BME280;49383;-25.924;28.194;2023-02-12T12:01:08;84831.44;;;20.64;44.66
55486;BME280;49383;-25.924;28.194;2023-02-12T12:03:28;84828.79;;;20.77;44.40
55486;BME280;49383;-25.924;28.194;2023-02-12T12:05:53;84825.05;;;20.78;44.36
55486;BME280;49383;-25.924;28.194;2023-02-12T12:08:23;84822.76;;;20.91;44.54
55486;BME280;49383;-25.924;28.194;2023-02-12T12:10:46;84821.25;;;20.73;44.80
55486;BME280;49383;-25.924;28.194;2023-02-12T12:13:14;84826.23;;;20.52;44.80
55486;BME280;49383;-25.924;28.194;2023-02-12T12:15:37;84822.83;;;20.71;44.51
55486;BME280;49383;-25.924;28.194;2023-02-12T12:18:03;84822.81;;;20.68;44.50
55486;BME280;49383;-25.924;28.194;2023-02-12T12:20:29;84821.27;;;20.88;44.02
55486;BME280;49383;-25.924;28.194;2023-02-12T12:22:53;84824.28;;;20.71;44.19
55486;BME280;49383;-25.924;28.194;2023-02-12T12:25:22;84823.65;;;20.86;43.96
55486;BME280;49383;-25.924;28.194;2023-02-12T12:27:47;84821.20;;;20.74;44.08
55486;BME280;49383;-25.924;28.194;2023-02-12T12:30:10;84817.08;;;20.64;44.29
55486;BME280;49383;-25.924;28.194;2023-02-12T12:32:31;84813.31;;;20.83;44.04
55486;BME280;49383;-25.924;28.194;2023-02-12T12:34:55;84807.37;;;20.64;44.66
55486;BME280;49383;-25.924;28.194;2023-02-12T12:37:30;84806.75;;;20.57;44.43
55486;BME280;49383;-25.924;28.194;2023-02-12T12:39:57;84802.51;;;20.39;44.77
55486;BME280;49383;-25.924;28.194;2023-02-12T12:42:29;84797.76;;;20.90;44.75
55486;BME280;49383;-25.924;28.194;2023-02-12T12:44:47;84796.03;;;20.93;44.92
55486;BME280;49383;-25.924;28.194;2023-02-12T12:47:11;84796.64;;;20.79;44.84
55486;BME280;49383;-25.924;28.194;2023-02-12T12:49:35;84792.55;;;20.90;45.11
55486;BME280;49383;-25.924;28.194;2023-02-12T12:54:30;84791.36;;;20.36;45.45